Time,TemperatureF,DewpointF,PressureIn,WindDirection,WindDirectionDegrees,WindSpeedMPH,WindSpeedGustMPH,Humidity,HourlyPrecipIn,Conditions,Clouds,dailyrainin,SoftwareType,DateUTC
2013-06-20 00:01:00,63.5,59.6,30.12,ENE,65,0.0,0.0,87,0.00,,,0.00,WUHU216DAVISVP2,2013-06-20 04:01:00,
2013-06-20 00:06:00,63.0,59.1,30.12,ENE,65,0.0,0.0,87,0.00,,,0.00,WUHU216DAVISVP2,2013-06-20 04:06:00,
2013-06-20 00:20:00,62.4,59.1,30.12,ENE,65,0.0,0.0,89,0.00,,,0.00,WUHU216DAVISVP2,2013-06-20 04:20:00,
2013-06-20 00:25:00,62.3,58.4,30.12,ENE,65,0.0,0.0,87,0.00,,,0.00,WUHU216DAVISVP2,2013-06-20 04:25:00,
2013-06-20 00:30:00,62.2,58.3,30.12,ENE,65,0.0,0.0,87,0.00,,,0.00,WUHU216DAVISVP2,2013-06-20 04:30:00,
2013-06-20 00:42:00,61.6,58.0,30.13,ENE,65,0.0,0.0,88,0.00,,,0.00,WUHU216DAVISVP2,2013-06-20 04:42:00,
2013-06-20 00:47:00,61.2,57.9,30.12,ENE,65,0.0,0.0,89,0.00,,,0.00,WUHU216DAVISVP2,2013-06-20 04:47:00,
2013-06-20 01:04:00,60.5,57.8,30.13,ENE,65,0.0,0.0,91,0.00,,,0.00,WUHU216DAVISVP2,2013-06-20 05:04:00,
2013-06-20 01:09:00,60.5,57.8,30.13,ENE,65,0.0,0.0,91,0.00,,,0.00,WUHU216DAVISVP2,2013-06-20 05:09:00,
2013-06-20 01:14:00,60.5,57.8,30.13,ENE,65,0.0,0.0,91,0.00,,,0.00,WUHU216DAVISVP2,2013-06-20 05:14:00,
2013-06-20 01:26:00,60.6,57.6,30.13,ENE,65,0.0,0.0,90,0.00,,,0.00,WUHU216DAVISVP2,2013-06-20 05:26:00,
2013-06-20 01:31:00,60.8,57.8,30.13,ENE,65,0.0,0.0,90,0.00,,,0.00,WUHU216DAVISVP2,2013-06-20 05:31:00,
2013-06-20 01:47:00,60.7,58.3,30.14,ENE,63,0.0,0.0,92,0.00,,,0.00,WUHU216DAVISVP2,2013-06-20 05:47:00,
2013-06-20 01:52:00,60.6,58.2,30.14,ENE,64,0.0,0.0,92,0.00,,,0.00,WUHU216DAVISVP2,2013-06-20 05:52:00,
2013-06-20 02:09:00,60.5,57.5,30.14,ENE,61,0.0,0.0,90,0.00,,,0.00,WUHU216DAVISVP2,2013-06-20 06:09:00,
2013-06-20 02:14:00,60.8,57.5,30.14,ENE,63,0.0,1.0,89,0.00,,,0.00,WUHU216DAVISVP2,2013-06-20 06:14:00,
2013-06-20 02:31:00,60.8,56.3,30.14,East,84,0.0,3.0,85,0.00,,,0.00,WUHU216DAVISVP2,2013-06-20 06:31:00,
2013-06-20 02:36:00,60.8,56.3,30.14,ENE,78,0.0,3.0,85,0.00,,,0.00,WUHU216DAVISVP2,2013-06-20 06:36:00,
2013-06-20 02:41:00,60.8,56.0,30.14,ENE,74,0.0,4.0,84,0.00,,,0.00,WUHU216DAVISVP2,2013-06-20 06:41:00,
2013-06-20 02:53:00,60.8,55.6,30.14,ENE,64,1.0,4.0,83,0.00,,,0.00,WUHU216DAVISVP2,2013-06-20 06:53:00,
2013-06-20 02:58:00,60.8,55.6,30.14,ENE,69,0.0,4.0,83,0.00,,,0.00,WUHU216DAVISVP2,2013-06-20 06:58:00,
2013-06-20 03:15:00,60.8,55.6,30.14,ENE,78,2.0,4.0,83,0.00,,,0.00,WUHU216DAVISVP2,2013-06-20 07:15:00,
2013-06-20 03:20:00,60.9,55.7,30.14,East,96,1.0,5.0,83,0.00,,,0.00,WUHU216DAVISVP2,2013-06-20 07:20:00,
2013-06-20 03:25:00,60.8,55.6,30.15,East,91,0.0,5.0,83,0.00,,,0.00,WUHU216DAVISVP2,2013-06-20 07:25:00,
2013-06-20 03:37:00,60.4,55.6,30.15,East,101,2.0,3.0,84,0.00,,,0.00,WUHU216DAVISVP2,2013-06-20 07:37:00,
2013-06-20 03:42:00,60.2,55.4,30.15,East,94,0.0,2.0,84,0.00,,,0.00,WUHU216DAVISVP2,2013-06-20 07:42:00,
2013-06-20 03:59:00,59.6,55.4,30.15,East,84,0.0,1.0,86,0.00,,,0.00,WUHU216DAVISVP2,2013-06-20 07:59:00,
2013-06-20 04:04:00,59.6,55.4,30.15,ENE,68,0.0,1.0,86,0.00,,,0.00,WUHU216DAVISVP2,2013-06-20 08:04:00,
2013-06-20 04:21:00,59.6,55.4,30.15,ENE,77,0.0,1.0,86,0.00,,,0.00,WUHU216DAVISVP2,2013-06-20 08:21:00,
2013-06-20 04:26:00,59.5,55.6,30.15,East,84,0.0,1.0,87,0.00,,,0.00,WUHU216DAVISVP2,2013-06-20 08:26:00,
2013-06-20 04:43:00,58.9,55.0,30.15,East,88,0.0,1.0,87,0.00,,,0.00,WUHU216DAVISVP2,2013-06-20 08:43:00,
2013-06-20 04:48:00,58.9,55.0,30.15,ENE,68,0.0,1.0,87,0.00,,,0.00,WUHU216DAVISVP2,2013-06-20 08:48:00,
2013-06-20 04:53:00,58.9,55.0,30.15,East,88,0.0,1.0,87,0.00,,,0.00,WUHU216DAVISVP2,2013-06-20 08:53:00,
2013-06-20 05:05:00,58.7,54.8,30.16,East,88,0.0,1.0,87,0.00,,,0.00,WUHU216DAVISVP2,2013-06-20 09:05:00,
2013-06-20 05:10:00,58.7,54.8,30.16,East,88,0.0,0.0,87,0.00,,,0.00,WUHU216DAVISVP2,2013-06-20 09:10:00,
2013-06-20 05:26:00,58.7,54.8,30.16,East,83,0.0,0.0,87,0.00,,,0.00,WUHU216DAVISVP2,2013-06-20 09:26:00,
2013-06-20 05:31:00,58.8,54.9,30.16,East,84,0.0,0.0,87,0.00,,,0.00,WUHU216DAVISVP2,2013-06-20 09:31:00,
2013-06-20 05:36:00,58.8,54.9,30.16,East,84,0.0,0.0,87,0.00,,,0.00,WUHU216DAVISVP2,2013-06-20 09:36:00,
2013-06-20 05:48:00,59.0,55.1,30.16,ENE,68,0.0,1.0,87,0.00,,,0.00,WUHU216DAVISVP2,2013-06-20 09:48:00,
2013-06-20 05:53:00,59.1,54.9,30.16,ENE,68,0.0,1.0,86,0.00,,,0.00,WUHU216DAVISVP2,2013-06-20 09:53:00,
2013-06-20 06:10:00,59.2,55.0,30.17,ENE,61,0.0,1.0,86,0.00,,,0.00,WUHU216DAVISVP2,2013-06-20 10:10:00,
2013-06-20 06:15:00,59.1,54.9,30.17,ENE,65,0.0,1.0,86,0.00,,,0.00,WUHU216DAVISVP2,2013-06-20 10:15:00,
2013-06-20 06:32:00,59.4,55.2,30.17,ENE,75,0.0,1.0,86,0.00,,,0.00,WUHU216DAVISVP2,2013-06-20 10:32:00,
2013-06-20 06:37:00,59.4,55.2,30.17,ENE,76,0.0,1.0,86,0.00,,,0.00,WUHU216DAVISVP2,2013-06-20 10:37:00,
2013-06-20 06:54:00,60.0,55.5,30.17,ENE,71,0.0,1.0,85,0.00,,,0.00,WUHU216DAVISVP2,2013-06-20 10:54:00,
2013-06-20 06:59:00,60.3,55.5,30.17,ENE,65,0.0,1.0,84,0.00,,,0.00,WUHU216DAVISVP2,2013-06-20 10:59:00,
2013-06-20 07:04:00,60.4,55.6,30.17,ENE,67,0.0,1.0,84,0.00,,,0.00,WUHU216DAVISVP2,2013-06-20 11:04:00,
2013-06-20 07:16:00,60.3,56.4,30.17,ENE,77,0.0,1.0,87,0.00,,,0.00,WUHU216DAVISVP2,2013-06-20 11:16:00,
2013-06-20 07:21:00,60.4,56.5,30.17,ENE,71,0.0,1.0,87,0.00,,,0.00,WUHU216DAVISVP2,2013-06-20 11:21:00,
2013-06-20 07:26:00,60.8,56.9,30.17,East,79,0.0,1.0,87,0.00,,,0.00,WUHU216DAVISVP2,2013-06-20 11:26:00,
2013-06-20 07:38:00,61.3,57.1,30.17,ENE,75,0.0,2.0,86,0.00,,,0.00,WUHU216DAVISVP2,2013-06-20 11:38:00,
2013-06-20 07:43:00,61.5,57.3,30.18,East,96,0.0,2.0,86,0.00,,,0.00,WUHU216DAVISVP2,2013-06-20 11:43:00,
2013-06-20 08:00:00,63.2,57.7,30.18,East,86,0.0,0.0,82,0.00,,,0.00,WUHU216DAVISVP2,2013-06-20 12:00:00,
2013-06-20 08:05:00,63.6,57.7,30.18,ESE,112,0.0,0.0,81,0.00,,,0.00,WUHU216DAVISVP2,2013-06-20 12:05:00,
2013-06-20 08:22:00,65.2,58.3,30.18,ESE,103,0.0,0.0,78,0.00,,,0.00,WUHU216DAVISVP2,2013-06-20 12:22:00,
2013-06-20 08:27:00,65.6,58.3,30.18,ESE,120,0.0,0.0,77,0.00,,,0.00,WUHU216DAVISVP2,2013-06-20 12:27:00,
2013-06-20 08:32:00,65.9,58.2,30.18,ESE,117,0.0,3.0,76,0.00,,,0.00,WUHU216DAVISVP2,2013-06-20 12:32:00,
2013-06-20 08:44:00,67.1,58.5,30.18,ESE,115,1.0,4.0,74,0.00,,,0.00,WUHU216DAVISVP2,2013-06-20 12:44:00,
2013-06-20 08:49:00,67.4,58.8,30.18,SE,132,3.0,6.0,74,0.00,,,0.00,WUHU216DAVISVP2,2013-06-20 12:49:00,
2013-06-20 08:54:00,67.9,59.4,30.18,East,100,3.0,6.0,74,0.00,,,0.00,WUHU216DAVISVP2,2013-06-20 12:54:00,
2013-06-20 09:06:00,69.0,59.2,30.18,SE,124,3.0,4.0,71,0.00,,,0.00,WUHU216DAVISVP2,2013-06-20 13:06:00,
2013-06-20 09:11:00,69.3,59.7,30.18,SE,132,2.0,4.0,71,0.00,,,0.00,WUHU216DAVISVP2,2013-06-20 13:11:00,
2013-06-20 09:27:00,70.9,60.8,30.19,ESE,112,1.0,3.0,70,0.00,,,0.00,WUHU216DAVISVP2,2013-06-20 13:27:00,
2013-06-20 09:32:00,71.5,61.0,30.19,SE,133,2.0,3.0,69,0.00,,,0.00,WUHU216DAVISVP2,2013-06-20 13:32:00,
2013-06-20 09:37:00,72.4,61.8,30.19,East,89,1.0,3.0,69,0.00,,,0.00,WUHU216DAVISVP2,2013-06-20 13:37:00,
2013-06-20 09:49:00,73.9,62.5,30.19,SE,130,0.0,4.0,67,0.00,,,0.00,WUHU216DAVISVP2,2013-06-20 13:49:00,
2013-06-20 09:54:00,74.1,61.8,30.19,ESE,122,0.0,3.0,65,0.00,,,0.00,WUHU216DAVISVP2,2013-06-20 13:54:00,
2013-06-20 10:11:00,74.6,62.3,30.19,SSE,150,1.0,1.0,65,0.00,,,0.00,WUHU216DAVISVP2,2013-06-20 14:11:00,
2013-06-20 10:16:00,74.6,62.7,30.19,SSW,199,0.0,2.0,66,0.00,,,0.00,WUHU216DAVISVP2,2013-06-20 14:16:00,
2013-06-20 10:33:00,75.3,62.5,30.19,South,187,0.0,3.0,64,0.00,,,0.00,WUHU216DAVISVP2,2013-06-20 14:33:00,
2013-06-20 10:38:00,75.3,62.5,30.19,South,186,0.0,3.0,64,0.00,,,0.00,WUHU216DAVISVP2,2013-06-20 14:38:00,
2013-06-20 10:55:00,75.2,62.4,30.19,SSE,162,1.0,2.0,64,0.00,,,0.00,WUHU216DAVISVP2,2013-06-20 14:55:00,
2013-06-20 11:00:00,75.2,61.5,30.19,SSW,198,1.0,2.0,62,0.00,,,0.00,WUHU216DAVISVP2,2013-06-20 15:00:00,
2013-06-20 11:05:00,75.2,61.0,30.19,WSW,252,0.0,3.0,61,0.00,,,0.00,WUHU216DAVISVP2,2013-06-20 15:05:00,
2013-06-20 11:17:00,75.4,61.5,30.19,ESE,106,0.0,3.0,62,0.00,,,0.00,WUHU216DAVISVP2,2013-06-20 15:17:00,
2013-06-20 11:22:00,75.5,61.8,30.19,SSE,165,1.0,2.0,62,0.00,,,0.00,WUHU216DAVISVP2,2013-06-20 15:22:00,
2013-06-20 11:39:00,76.7,62.7,30.19,ESE,105,0.0,3.0,62,0.00,,,0.00,WUHU216DAVISVP2,2013-06-20 15:39:00,
2013-06-20 11:44:00,76.9,62.2,30.19,SSW,208,2.0,2.0,60,0.00,,,0.00,WUHU216DAVISVP2,2013-06-20 15:44:00,
2013-06-20 11:49:00,77.2,62.2,30.19,SSW,207,0.0,2.0,60,0.00,,,0.00,WUHU216DAVISVP2,2013-06-20 15:49:00,
2013-06-20 12:01:00,77.4,62.9,30.19,SW,228,3.0,3.0,61,0.00,,,0.00,WUHU216DAVISVP2,2013-06-20 16:01:00,
2013-06-20 12:06:00,77.1,62.6,30.19,SSW,197,0.0,3.0,61,0.00,,,0.00,WUHU216DAVISVP2,2013-06-20 16:06:00,
2013-06-20 12:11:00,77.3,63.3,30.19,WSW,249,1.0,3.0,62,0.00,,,0.00,WUHU216DAVISVP2,2013-06-20 16:11:00,
2013-06-20 12:23:00,77.0,63.0,30.19,SW,214,0.0,3.0,62,0.00,,,0.00,WUHU216DAVISVP2,2013-06-20 16:23:00,
2013-06-20 12:28:00,76.8,63.5,30.19,SE,143,0.0,3.0,63,0.00,,,0.00,WUHU216DAVISVP2,2013-06-20 16:28:00,
2013-06-20 12:33:00,76.6,64.0,30.19,WSW,240,1.0,3.0,65,0.00,,,0.00,WUHU216DAVISVP2,2013-06-20 16:33:00,
2013-06-20 12:44:00,75.6,63.0,30.19,SW,217,1.0,2.0,65,0.00,,,0.00,WUHU216DAVISVP2,2013-06-20 16:44:00,
2013-06-20 12:49:00,75.5,63.1,30.19,SSW,212,0.0,2.0,65,0.00,,,0.00,WUHU216DAVISVP2,2013-06-20 16:49:00,
2013-06-20 12:54:00,75.7,63.3,30.18,SW,214,0.0,2.0,65,0.00,,,0.00,WUHU216DAVISVP2,2013-06-20 16:54:00,
2013-06-20 13:06:00,75.4,63.9,30.19,WSW,248,1.0,1.0,67,0.00,,,0.00,WUHU216DAVISVP2,2013-06-20 17:06:00,
2013-06-20 13:11:00,75.1,63.6,30.19,SW,217,0.0,1.0,67,0.00,,,0.00,WUHU216DAVISVP2,2013-06-20 17:11:00,
2013-06-20 13:28:00,74.5,64.3,30.19,WSW,255,0.0,1.0,70,0.00,,,0.00,WUHU216DAVISVP2,2013-06-20 17:28:00,
2013-06-20 13:33:00,74.6,64.8,30.19,WSW,255,0.0,1.0,71,0.00,,,0.00,WUHU216DAVISVP2,2013-06-20 17:33:00,
2013-06-20 13:38:00,74.7,66.8,30.19,NNW,344,0.0,0.0,76,0.00,,,0.00,WUHU216DAVISVP2,2013-06-20 17:38:00,
2013-06-20 13:50:00,73.6,66.1,30.19,NNW,336,0.0,2.0,77,0.00,,,0.00,WUHU216DAVISVP2,2013-06-20 17:50:00,
2013-06-20 13:55:00,73.3,66.5,30.19,NNW,336,0.0,2.0,79,0.00,,,0.00,WUHU216DAVISVP2,2013-06-20 17:55:00,
2013-06-20 14:00:00,73.2,66.8,30.19,NNW,333,0.0,2.0,80,0.00,,,0.00,WUHU216DAVISVP2,2013-06-20 18:00:00,
2013-06-20 14:12:00,73.7,65.8,30.18,NW,324,0.0,1.0,76,0.00,,,0.00,WUHU216DAVISVP2,2013-06-20 18:12:00,
2013-06-20 14:17:00,74.4,66.1,30.18,NW,325,0.0,1.0,75,0.00,,,0.00,WUHU216DAVISVP2,2013-06-20 18:17:00,
2013-06-20 14:34:00,76.3,66.4,30.18,NW,309,1.0,4.0,71,0.00,,,0.00,WUHU216DAVISVP2,2013-06-20 18:34:00,
2013-06-20 14:39:00,75.9,65.6,30.18,West,281,0.0,4.0,70,0.00,,,0.00,WUHU216DAVISVP2,2013-06-20 18:39:00,
2013-06-20 14:56:00,76.7,65.6,30.18,NNW,335,2.0,4.0,68,0.00,,,0.00,WUHU216DAVISVP2,2013-06-20 18:56:00,
2013-06-20 15:01:00,77.4,64.9,30.18,NW,307,2.0,4.0,65,0.00,,,0.00,WUHU216DAVISVP2,2013-06-20 19:01:00,
2013-06-20 15:06:00,78.0,65.5,30.18,North,351,1.0,4.0,65,0.00,,,0.00,WUHU216DAVISVP2,2013-06-20 19:06:00,
2013-06-20 15:18:00,78.7,65.7,30.17,WNW,297,1.0,3.0,64,0.00,,,0.00,WUHU216DAVISVP2,2013-06-20 19:18:00,
2013-06-20 15:23:00,79.3,65.9,30.17,NE,46,1.0,3.0,63,0.00,,,0.00,WUHU216DAVISVP2,2013-06-20 19:23:00,
2013-06-20 15:40:00,80.7,67.2,30.17,South,170,1.0,2.0,63,0.00,,,0.00,WUHU216DAVISVP2,2013-06-20 19:40:00,
2013-06-20 15:45:00,81.8,66.6,30.17,SE,142,1.0,3.0,60,0.00,,,0.00,WUHU216DAVISVP2,2013-06-20 19:45:00,
2013-06-20 15:50:00,82.2,67.4,30.17,NNW,344,2.0,3.0,61,0.00,,,0.00,WUHU216DAVISVP2,2013-06-20 19:50:00,
2013-06-20 16:02:00,81.1,66.4,30.16,SSE,150,0.0,4.0,61,0.00,,,0.00,WUHU216DAVISVP2,2013-06-20 20:02:00,
2013-06-20 16:07:00,81.5,66.3,30.16,NW,310,0.0,4.0,60,0.00,,,0.00,WUHU216DAVISVP2,2013-06-20 20:07:00,
2013-06-20 16:23:00,81.9,66.2,30.16,WNW,291,1.0,4.0,59,0.00,,,0.00,WUHU216DAVISVP2,2013-06-20 20:23:00,
2013-06-20 16:28:00,81.3,66.1,30.16,West,270,1.0,4.0,60,0.00,,,0.00,WUHU216DAVISVP2,2013-06-20 20:28:00,
2013-06-20 16:33:00,81.3,66.6,30.16,NW,312,1.0,4.0,61,0.00,,,0.00,WUHU216DAVISVP2,2013-06-20 20:33:00,
2013-06-20 16:45:00,82.7,67.4,30.16,NNE,22,0.0,4.0,60,0.00,,,0.00,WUHU216DAVISVP2,2013-06-20 20:45:00,
2013-06-20 16:50:00,82.3,66.5,30.16,WNW,300,1.0,3.0,59,0.00,,,0.00,WUHU216DAVISVP2,2013-06-20 20:50:00,
2013-06-20 16:55:00,82.2,66.4,30.15,WNW,284,0.0,3.0,59,0.00,,,0.00,WUHU216DAVISVP2,2013-06-20 20:55:00,
2013-06-20 17:07:00,83.8,68.2,30.15,SSE,148,0.0,4.0,59,0.00,,,0.00,WUHU216DAVISVP2,2013-06-20 21:07:00,
2013-06-20 17:12:00,84.0,67.9,30.15,East,79,1.0,4.0,58,0.00,,,0.00,WUHU216DAVISVP2,2013-06-20 21:12:00,
2013-06-20 17:17:00,83.7,67.6,30.15,ESE,117,2.0,4.0,58,0.00,,,0.00,WUHU216DAVISVP2,2013-06-20 21:17:00,
2013-06-20 17:29:00,83.7,67.1,30.15,SSE,166,0.0,3.0,57,0.00,,,0.00,WUHU216DAVISVP2,2013-06-20 21:29:00,
2013-06-20 17:34:00,83.8,67.2,30.14,SE,134,3.0,3.0,57,0.00,,,0.00,WUHU216DAVISVP2,2013-06-20 21:34:00,
2013-06-20 17:39:00,83.6,65.9,30.14,SSW,212,1.0,3.0,55,0.00,,,0.00,WUHU216DAVISVP2,2013-06-20 21:39:00,
2013-06-20 17:51:00,84.1,66.7,30.13,SSW,207,2.0,4.0,56,0.00,,,0.00,WUHU216DAVISVP2,2013-06-20 21:51:00,
2013-06-20 17:56:00,84.2,67.3,30.13,East,93,2.0,4.0,57,0.00,,,0.00,WUHU216DAVISVP2,2013-06-20 21:56:00,
2013-06-20 18:13:00,83.9,67.5,30.13,East,92,2.0,4.0,58,0.00,,,0.00,WUHU216DAVISVP2,2013-06-20 22:13:00,
2013-06-20 18:18:00,83.4,67.3,30.13,East,82,2.0,6.0,58,0.00,,,0.00,WUHU216DAVISVP2,2013-06-20 22:18:00,
2013-06-20 18:23:00,82.8,67.3,30.13,ESE,105,1.0,6.0,59,0.00,,,0.00,WUHU216DAVISVP2,2013-06-20 22:23:00,
2013-06-20 18:35:00,82.9,67.8,30.13,SE,130,3.0,5.0,60,0.00,,,0.00,WUHU216DAVISVP2,2013-06-20 22:35:00,
2013-06-20 18:40:00,83.1,67.0,30.13,South,170,3.0,5.0,58,0.00,,,0.00,WUHU216DAVISVP2,2013-06-20 22:40:00,
2013-06-20 18:57:00,83.0,66.4,30.13,SE,133,2.0,6.0,57,0.00,,,0.00,WUHU216DAVISVP2,2013-06-20 22:57:00,
2013-06-20 19:02:00,83.0,67.4,30.13,ESE,113,3.0,6.0,59,0.00,,,0.00,WUHU216DAVISVP2,2013-06-20 23:02:00,
2013-06-20 19:07:00,82.9,66.3,30.13,SE,137,2.0,6.0,57,0.00,,,0.00,WUHU216DAVISVP2,2013-06-20 23:07:00,
2013-06-20 19:19:00,82.3,66.3,30.12,SE,130,4.0,6.0,58,0.00,,,0.00,WUHU216DAVISVP2,2013-06-20 23:19:00,
2013-06-20 19:24:00,82.3,66.8,30.12,ESE,115,4.0,6.0,59,0.00,,,0.00,WUHU216DAVISVP2,2013-06-20 23:24:00,
2013-06-20 19:29:00,82.2,67.7,30.12,ESE,117,5.0,7.0,61,0.00,,,0.00,WUHU216DAVISVP2,2013-06-20 23:29:00,
2013-06-20 19:41:00,81.9,67.9,30.12,East,95,2.0,6.0,62,0.00,,,0.00,WUHU216DAVISVP2,2013-06-20 23:41:00,
2013-06-20 19:46:00,81.7,67.2,30.12,East,92,4.0,6.0,61,0.00,,,0.00,WUHU216DAVISVP2,2013-06-20 23:46:00,
2013-06-20 20:03:00,81.8,67.8,30.13,East,99,0.0,5.0,62,0.00,,,0.00,WUHU216DAVISVP2,2013-06-21 00:03:00,
2013-06-20 20:08:00,81.7,68.1,30.13,East,89,1.0,3.0,63,0.00,,,0.00,WUHU216DAVISVP2,2013-06-21 00:08:00,
2013-06-20 20:13:00,81.4,68.3,30.13,East,100,1.0,3.0,64,0.00,,,0.00,WUHU216DAVISVP2,2013-06-21 00:13:00,
2013-06-20 20:24:00,80.5,68.3,30.12,East,99,3.0,3.0,66,0.00,,,0.00,WUHU216DAVISVP2,2013-06-21 00:24:00,
2013-06-20 20:29:00,80.0,68.3,30.12,East,96,2.0,3.0,67,0.00,,,0.00,WUHU216DAVISVP2,2013-06-21 00:29:00,
2013-06-20 20:46:00,78.0,68.0,30.11,ESE,112,1.0,2.0,71,0.00,,,0.00,WUHU216DAVISVP2,2013-06-21 00:46:00,
2013-06-20 20:51:00,77.5,68.0,30.12,East,99,1.0,2.0,72,0.00,,,0.00,WUHU216DAVISVP2,2013-06-21 00:51:00,
2013-06-20 21:08:00,76.1,67.4,30.12,East,95,1.0,2.0,74,0.00,,,0.00,WUHU216DAVISVP2,2013-06-21 01:08:00,
2013-06-20 21:13:00,75.8,67.5,30.12,East,94,0.0,1.0,75,0.00,,,0.00,WUHU216DAVISVP2,2013-06-21 01:13:00,
2013-06-20 21:30:00,74.4,67.6,30.12,East,94,0.0,1.0,79,0.00,,,0.00,WUHU216DAVISVP2,2013-06-21 01:30:00,
2013-06-20 21:35:00,74.1,68.0,30.12,East,95,0.0,1.0,81,0.00,,,0.00,WUHU216DAVISVP2,2013-06-21 01:35:00,
2013-06-20 21:52:00,72.8,67.7,30.12,East,94,0.0,0.0,84,0.00,,,0.00,WUHU216DAVISVP2,2013-06-21 01:52:00,
2013-06-20 21:57:00,72.4,67.3,30.13,East,95,0.0,0.0,84,0.00,,,0.00,WUHU216DAVISVP2,2013-06-21 01:57:00,
2013-06-20 22:02:00,72.2,67.5,30.13,East,95,0.0,0.0,85,0.00,,,0.00,WUHU216DAVISVP2,2013-06-21 02:02:00,
2013-06-20 22:14:00,71.6,67.2,30.13,East,95,0.0,0.0,86,0.00,,,0.00,WUHU216DAVISVP2,2013-06-21 02:14:00,
2013-06-20 22:19:00,71.2,66.8,30.14,East,95,0.0,0.0,86,0.00,,,0.00,WUHU216DAVISVP2,2013-06-21 02:19:00,
2013-06-20 22:36:00,69.6,66.2,30.14,East,94,0.0,0.0,89,0.00,,,0.00,WUHU216DAVISVP2,2013-06-21 02:36:00,
2013-06-20 22:41:00,69.4,66.0,30.14,East,95,0.0,0.0,89,0.00,,,0.00,WUHU216DAVISVP2,2013-06-21 02:41:00,
2013-06-20 22:46:00,69.2,65.8,30.14,East,95,0.0,0.0,89,0.00,,,0.00,WUHU216DAVISVP2,2013-06-21 02:46:00,
2013-06-20 22:58:00,69.2,65.8,30.15,East,101,0.0,0.0,89,0.00,,,0.00,WUHU216DAVISVP2,2013-06-21 02:58:00,
2013-06-20 23:03:00,69.3,65.9,30.15,East,100,0.0,0.0,89,0.00,,,0.00,WUHU216DAVISVP2,2013-06-21 03:03:00,
2013-06-20 23:20:00,69.2,65.5,30.15,East,98,0.0,1.0,88,0.00,,,0.00,WUHU216DAVISVP2,2013-06-21 03:20:00,
2013-06-20 23:25:00,69.2,65.5,30.15,ENE,78,0.0,1.0,88,0.00,,,0.00,WUHU216DAVISVP2,2013-06-21 03:25:00,
2013-06-20 23:42:00,68.6,64.9,30.16,ENE,78,0.0,1.0,88,0.00,,,0.00,WUHU216DAVISVP2,2013-06-21 03:42:00,
2013-06-20 23:47:00,68.4,65.0,30.16,East,84,0.0,1.0,89,0.00,,,0.00,WUHU216DAVISVP2,2013-06-21 03:47:00,